createdAt,value
2018-01-08T00:02:21.270Z,12.20
2018-01-08T00:04:49.569Z,10.20
2018-01-08T00:07:17.125Z,9.83
2018-01-08T00:09:46.362Z,11.43
2018-01-08T00:12:13.905Z,9.87
2018-01-08T00:14:41.424Z,9.53
2018-01-08T00:17:09.732Z,10.20
2018-01-08T00:19:37.282Z,10.50
2018-01-08T00:22:05.572Z,9.37
2018-01-08T00:24:33.118Z,9.77
2018-01-08T00:27:01.406Z,9.20
2018-01-08T00:29:28.961Z,9.50
2018-01-08T00:31:56.492Z,9.50
2018-01-08T00:34:24.047Z,9.43
2018-01-08T00:36:53.316Z,10.00
2018-01-08T00:39:20.831Z,14.47
2018-01-08T00:41:48.377Z,10.17
2018-01-08T00:44:16.661Z,11.93
2018-01-08T00:46:46.231Z,13.33
2018-01-08T00:49:13.953Z,10.77
2018-01-08T00:51:41.538Z,10.23
2018-01-08T00:54:09.095Z,9.80
2018-01-08T00:56:37.619Z,12.70
2018-01-08T00:59:05.144Z,11.60
2018-01-08T01:01:32.700Z,11.57
2018-01-08T01:04:01.470Z,9.77
2018-01-08T01:06:29.946Z,10.50
2018-01-08T01:08:57.486Z,9.20
2018-01-08T01:11:25.011Z,9.50
2018-01-08T01:13:52.562Z,13.40
2018-01-08T01:16:21.055Z,12.57
2018-01-08T01:18:48.646Z,9.13
2018-01-08T01:21:16.177Z,9.83
2018-01-08T01:23:44.490Z,9.60
2018-01-08T01:26:12.100Z,9.23
2018-01-08T01:28:40.387Z,9.40
2018-01-08T01:31:08.710Z,10.27
2018-01-08T01:33:36.226Z,10.10
2018-01-08T01:36:04.537Z,10.43
2018-01-08T01:38:32.067Z,10.17
2018-01-08T01:41:00.391Z,10.03
2018-01-08T01:43:27.918Z,10.13
2018-01-08T01:45:55.479Z,9.87
2018-01-08T01:48:22.998Z,9.63
2018-01-08T01:50:50.615Z,9.13
2018-01-08T01:53:18.164Z,9.23
2018-01-08T01:55:45.960Z,9.90
2018-01-08T01:58:14.871Z,10.00
2018-01-08T02:00:42.442Z,9.30
2018-01-08T02:03:10.182Z,9.40
2018-01-08T02:05:37.708Z,9.83
2018-01-08T02:08:05.266Z,9.10
2018-01-08T02:10:32.790Z,9.63
2018-01-08T02:13:01.078Z,8.97
2018-01-08T02:15:28.638Z,10.57
2018-01-08T02:17:57.344Z,8.63
2018-01-08T02:20:24.919Z,8.80
2018-01-08T02:22:52.603Z,9.40
2018-01-08T02:25:20.192Z,10.00
2018-01-08T02:27:49.451Z,10.10
2018-01-08T02:30:17.087Z,9.67
2018-01-08T02:32:44.610Z,9.30
2018-01-08T02:35:12.934Z,9.00
2018-01-08T02:37:40.486Z,9.60
2018-01-08T02:40:08.016Z,9.40
2018-01-08T02:42:36.323Z,8.63
2018-01-08T02:45:03.871Z,9.00
2018-01-08T02:47:31.421Z,8.83
2018-01-08T02:49:59.907Z,9.00
2018-01-08T02:52:27.447Z,12.10
2018-01-08T02:54:55.761Z,9.90
2018-01-08T02:57:24.255Z,8.80
2018-01-08T02:59:51.807Z,9.30
2018-01-08T03:02:19.326Z,9.13
2018-01-08T03:04:47.636Z,9.73
2018-01-08T03:07:15.335Z,9.23
2018-01-08T03:09:42.886Z,8.90
2018-01-08T03:12:10.403Z,9.43
2018-01-08T03:14:38.896Z,9.23
2018-01-08T03:17:06.442Z,9.27
2018-01-08T03:19:33.962Z,9.90
2018-01-08T03:22:02.279Z,9.57
2018-01-08T03:24:29.806Z,9.20
2018-01-08T03:26:57.367Z,9.13
2018-01-08T03:29:24.890Z,9.20
2018-01-08T03:31:52.504Z,9.30
2018-01-08T03:34:21.047Z,8.57
2018-01-08T03:36:48.602Z,9.50
2018-01-08T03:39:16.127Z,9.70
2018-01-08T03:41:43.651Z,9.87
2018-01-08T03:44:11.203Z,9.50
2018-01-08T03:46:38.736Z,9.30
2018-01-08T03:49:06.279Z,8.73
2018-01-08T03:51:33.811Z,8.97
2018-01-08T03:54:01.367Z,8.80
2018-01-08T03:56:28.887Z,8.70
2018-01-08T03:58:57.236Z,9.63
2018-01-08T04:01:24.759Z,8.63
2018-01-08T04:03:52.290Z,8.93
2018-01-08T04:06:19.842Z,9.07
2018-01-08T04:08:48.122Z,8.70
2018-01-08T04:11:15.671Z,8.10
2018-01-08T04:13:43.192Z,8.90
2018-01-08T04:16:10.739Z,8.80
2018-01-08T04:18:38.262Z,8.97
2018-01-08T04:21:07.781Z,9.00
2018-01-08T04:23:35.306Z,9.13
2018-01-08T04:26:02.879Z,9.07
2018-01-08T04:28:30.418Z,8.23
2018-01-08T04:30:57.943Z,8.60
2018-01-08T04:33:25.489Z,9.47
2018-01-08T04:35:53.002Z,8.87
2018-01-08T04:38:20.550Z,9.30
2018-01-08T04:40:48.084Z,7.87
2018-01-08T04:43:15.627Z,8.60
2018-01-08T04:45:43.166Z,8.57
2018-01-08T04:48:10.703Z,9.47
2018-01-08T04:50:39.215Z,8.87
2018-01-08T04:53:06.735Z,9.53
2018-01-08T04:55:34.295Z,9.53
2018-01-08T04:58:01.819Z,10.20
2018-01-08T05:00:29.362Z,8.07
2018-01-08T05:02:56.874Z,8.70
2018-01-08T05:05:24.422Z,8.07
2018-01-08T05:07:51.956Z,8.23
2018-01-08T05:10:19.475Z,9.00
2018-01-08T05:12:47.018Z,8.73
2018-01-08T05:15:14.546Z,8.77
2018-01-08T05:17:42.091Z,9.10
2018-01-08T05:20:09.616Z,8.63
2018-01-08T05:22:37.159Z,8.37
2018-01-08T05:25:06.367Z,8.60
2018-01-08T05:27:33.902Z,9.30
2018-01-08T05:30:01.454Z,9.40
2018-01-08T05:32:29.933Z,12.20
2018-01-08T05:34:57.491Z,9.60
2018-01-08T05:37:25.019Z,9.87
2018-01-08T05:39:52.567Z,9.33
2018-01-08T05:47:53.075Z,9.53
2018-01-08T05:50:20.629Z,13.73
2018-01-08T05:52:48.164Z,10.37
2018-01-08T05:55:17.679Z,11.00
2018-01-08T05:57:45.220Z,9.83
2018-01-08T06:00:12.748Z,9.70
2018-01-08T06:02:40.298Z,9.17
2018-01-08T06:05:07.823Z,9.60
2018-01-08T06:07:35.375Z,9.80
2018-01-08T06:10:02.904Z,9.30
2018-01-08T06:12:34.109Z,10.07
2018-01-08T06:15:11.080Z,9.50
2018-01-08T06:17:38.700Z,10.63
2018-01-08T06:20:06.324Z,10.20
2018-01-08T06:22:33.844Z,10.60
2018-01-08T06:25:02.168Z,11.27
2018-01-08T06:27:29.728Z,10.00
2018-01-08T06:29:57.272Z,9.00
2018-01-08T06:32:24.828Z,10.60
2018-01-08T06:34:53.142Z,10.40
2018-01-08T06:37:20.667Z,10.90
2018-01-08T06:39:48.217Z,12.80
2018-01-08T06:42:16.525Z,12.87
2018-01-08T06:44:44.063Z,21.13
2018-01-08T06:47:11.619Z,12.37
2018-01-08T06:49:40.242Z,14.30
2018-01-08T06:52:07.827Z,18.57
2018-01-08T06:54:36.312Z,21.63
2018-01-08T06:57:04.826Z,12.70
2018-01-08T06:59:32.366Z,48.50
2018-01-08T07:02:00.688Z,13.97
2018-01-08T07:04:28.252Z,12.23
2018-01-08T07:06:56.751Z,15.23
2018-01-08T07:09:24.302Z,19.40
2018-01-08T07:11:51.831Z,17.50
2018-01-08T07:14:19.386Z,19.93
2018-01-08T07:16:46.915Z,16.90
2018-01-08T07:19:16.438Z,15.63
2018-01-08T07:21:43.982Z,16.00
2018-01-08T07:24:14.227Z,17.33
2018-01-08T07:26:41.747Z,19.33
2018-01-08T07:29:09.281Z,18.03
2018-01-08T07:31:36.838Z,16.27
2018-01-08T07:34:04.368Z,16.33
2018-01-08T07:36:32.884Z,16.47
2018-01-08T07:39:00.404Z,17.67
2018-01-08T07:41:27.955Z,16.93
2018-01-08T07:43:55.475Z,14.60
2018-01-08T07:46:23.023Z,18.27
2018-01-08T07:48:50.563Z,18.80
2018-01-08T07:51:18.104Z,18.47
2018-01-08T07:53:45.656Z,16.30
2018-01-08T07:56:13.191Z,17.27
2018-01-08T07:58:41.517Z,17.23
2018-01-08T08:01:09.999Z,16.27
2018-01-08T08:03:37.557Z,16.90
2018-01-08T08:06:06.068Z,17.17
2018-01-08T08:08:33.626Z,20.67
2018-01-08T08:11:01.162Z,19.90
2018-01-08T08:13:28.688Z,17.13
2018-01-08T08:15:56.243Z,16.43
2018-01-08T08:18:23.835Z,15.33
2018-01-08T08:20:52.347Z,14.70
2018-01-08T08:23:20.823Z,15.67
2018-01-08T08:25:48.387Z,14.37
2018-01-08T08:28:15.915Z,16.03
2018-01-08T08:30:43.467Z,15.13
2018-01-08T08:33:10.992Z,13.60
2018-01-08T08:35:39.323Z,16.27
2018-01-08T08:38:06.847Z,14.17
2018-01-08T08:40:34.387Z,14.90
2018-01-08T08:43:02.710Z,19.83
2018-01-08T08:45:30.268Z,14.50
2018-01-08T08:47:57.819Z,14.40
2018-01-08T08:50:25.340Z,14.60
2018-01-08T08:52:52.899Z,28.13
2018-01-08T08:55:21.194Z,15.10
2018-01-08T08:57:49.785Z,14.60
2018-01-08T09:00:17.476Z,15.83
2018-01-08T09:02:45.055Z,22.30
2018-01-08T09:05:12.584Z,14.20
2018-01-08T09:07:40.111Z,14.00
2018-01-08T09:10:09.638Z,15.80
2018-01-08T09:12:37.167Z,14.67
2018-01-08T09:15:04.739Z,15.70
2018-01-08T09:17:32.262Z,21.63
2018-01-08T09:19:59.816Z,20.30
2018-01-08T09:22:27.348Z,21.10
2018-01-08T09:24:54.911Z,23.17
2018-01-08T09:27:22.452Z,24.30
2018-01-08T09:29:50.015Z,21.20
2018-01-08T09:32:18.335Z,20.40
2018-01-08T09:34:45.862Z,21.13
2018-01-08T09:37:13.412Z,19.50
2018-01-08T09:39:41.154Z,20.57
2018-01-08T09:42:09.695Z,21.80
2018-01-08T09:44:37.215Z,20.23
2018-01-08T09:47:04.766Z,21.83
2018-01-08T09:49:32.324Z,42.63
2018-01-08T09:51:59.886Z,19.20
2018-01-08T09:54:27.421Z,19.67
2018-01-08T09:56:54.975Z,24.00
2018-01-08T09:59:22.506Z,21.40
2018-01-08T10:01:50.036Z,19.77
2018-01-08T10:04:31.408Z,19.67
2018-01-08T10:07:10.820Z,18.07
2018-01-08T10:09:50.262Z,17.57
2018-01-08T10:12:29.694Z,17.47
2018-01-08T10:15:09.159Z,26.67
2018-01-08T10:17:48.468Z,18.37
2018-01-08T10:20:16.121Z,22.37
2018-01-08T10:22:43.647Z,28.20
2018-01-08T10:25:11.203Z,19.27
2018-01-08T10:27:38.778Z,19.60
2018-01-08T10:30:06.337Z,21.20
2018-01-08T10:32:33.866Z,17.90
2018-01-08T10:35:03.383Z,18.80
2018-01-08T10:37:30.916Z,20.63
2018-01-08T10:39:58.484Z,19.33
2018-01-08T10:42:31.695Z,28.27
2018-01-08T10:45:04.862Z,20.90
2018-01-08T10:47:37.963Z,21.63
2018-01-08T10:50:12.034Z,24.73
2018-01-08T10:52:39.583Z,18.70
2018-01-08T10:55:07.147Z,19.57
2018-01-08T10:57:34.710Z,19.70
2018-01-08T11:00:02.250Z,17.30
2018-01-08T11:02:36.242Z,17.73
2018-01-08T11:05:04.543Z,20.20
2018-01-08T11:07:32.102Z,18.07
2018-01-08T11:10:00.597Z,28.43
2018-01-08T11:12:28.170Z,20.23
2018-01-08T11:14:55.690Z,19.27
2018-01-08T11:17:23.393Z,33.00
2018-01-08T11:19:50.920Z,20.20
2018-01-08T11:22:18.471Z,23.40
2018-01-08T11:24:46.003Z,18.67
2018-01-08T11:27:13.562Z,20.13
2018-01-08T11:29:41.083Z,22.63
2018-01-08T11:32:08.607Z,21.57
2018-01-08T11:34:36.206Z,27.80
2018-01-08T11:37:04.663Z,24.93
2018-01-08T11:39:32.218Z,30.70
2018-01-08T11:41:59.754Z,27.40
2018-01-08T11:44:27.307Z,24.73
2018-01-08T11:46:54.840Z,29.13
2018-01-08T11:49:22.391Z,24.30
2018-01-08T11:51:49.915Z,19.57
2018-01-08T11:54:17.492Z,19.90
2018-01-08T11:56:45.023Z,19.40
2018-01-08T11:59:12.567Z,21.10
2018-01-08T12:01:40.127Z,25.73
2018-01-08T12:04:07.671Z,20.73
2018-01-08T12:06:37.162Z,20.70
2018-01-08T12:09:05.675Z,19.40
2018-01-08T12:11:33.241Z,22.13
2018-01-08T12:14:00.763Z,34.63
2018-01-08T12:16:28.337Z,17.93
2018-01-08T12:18:55.862Z,21.47
2018-01-08T12:21:23.443Z,21.60
2018-01-08T12:23:50.978Z,18.10
2018-01-08T12:26:18.560Z,18.97
2018-01-08T12:28:46.111Z,26.60
2018-01-08T12:31:13.643Z,23.20
2018-01-08T12:33:41.190Z,24.77
2018-01-08T12:36:08.728Z,23.23
2018-01-08T12:38:38.220Z,28.40
2018-01-08T12:41:06.523Z,23.67
2018-01-08T12:43:34.070Z,29.60
2018-01-08T12:46:01.627Z,23.90
2018-01-08T12:48:31.124Z,33.03
2018-01-08T12:50:59.414Z,29.80
2018-01-08T12:53:28.113Z,29.63
2018-01-08T12:55:55.745Z,36.43
2018-01-08T12:58:24.993Z,25.67
2018-01-08T13:00:52.543Z,24.50
2018-01-08T13:03:20.947Z,27.47
2018-01-08T13:05:48.523Z,26.90
2018-01-08T13:08:16.050Z,24.63
2018-01-08T13:10:43.815Z,32.97
2018-01-08T13:13:11.595Z,22.23
2018-01-08T13:15:39.130Z,21.70
2018-01-08T13:18:06.723Z,22.80
2018-01-08T13:20:34.499Z,22.93
2018-01-08T13:23:02.084Z,23.13
2018-01-08T13:25:29.626Z,25.27
2018-01-08T13:27:57.195Z,24.83
2018-01-08T13:30:25.478Z,24.07
2018-01-08T13:32:53.155Z,23.90
2018-01-08T13:35:20.689Z,18.83
2018-01-08T13:37:48.234Z,21.10
2018-01-08T13:40:16.895Z,28.83
2018-01-08T13:42:44.431Z,22.83
2018-01-08T13:45:11.979Z,22.80
2018-01-08T13:47:39.514Z,23.60
2018-01-08T13:50:07.077Z,29.40
2018-01-08T13:52:34.609Z,32.03
2018-01-08T13:55:02.191Z,28.23
2018-01-08T13:57:29.727Z,36.73
2018-01-08T13:59:58.056Z,35.40
2018-01-08T14:02:25.596Z,30.10
2018-01-08T14:04:53.162Z,28.97
2018-01-08T14:07:20.697Z,37.97
2018-01-08T14:09:48.264Z,46.93
2018-01-08T14:12:16.763Z,31.00
2018-01-08T14:14:44.324Z,29.50
2018-01-08T14:17:11.869Z,28.13
2018-01-08T14:19:39.394Z,27.13
2018-01-08T14:22:06.971Z,27.77
2018-01-08T14:24:35.443Z,30.97
2018-01-08T14:27:03.766Z,30.23
2018-01-08T14:29:31.386Z,48.43
2018-01-08T14:31:59.716Z,29.67
2018-01-08T14:34:27.252Z,37.33
2018-01-08T14:36:54.815Z,26.80
2018-01-08T14:39:22.651Z,26.13
2018-01-08T14:41:50.228Z,24.83
2018-01-08T14:44:17.788Z,26.13
2018-01-08T14:46:45.315Z,29.70
2018-01-08T14:49:13.935Z,27.33
2018-01-08T14:51:41.544Z,26.93
2018-01-08T14:54:09.126Z,28.00
2018-01-08T14:56:38.470Z,27.97
2018-01-08T14:59:06.030Z,28.97
2018-01-08T15:01:33.573Z,27.20
2018-01-08T15:04:01.242Z,29.33
2018-01-08T15:06:29.030Z,27.07
2018-01-08T15:08:57.576Z,28.33
2018-01-08T15:11:25.141Z,29.20
2018-01-08T15:13:52.918Z,27.00
2018-01-08T15:16:20.676Z,27.37
2018-01-08T15:18:48.307Z,26.83
2018-01-08T15:21:15.886Z,27.90
2018-01-08T15:23:43.432Z,34.13
2018-01-08T15:26:10.995Z,29.17
2018-01-08T15:28:38.523Z,26.80
2018-01-08T15:31:06.097Z,28.13
2018-01-08T15:33:34.404Z,28.87
2018-01-08T15:36:02.932Z,26.53
2018-01-08T15:38:30.650Z,28.43
2018-01-08T15:40:58.413Z,29.13
2018-01-08T15:43:25.968Z,26.87
2018-01-08T15:45:53.737Z,28.10
2018-01-08T15:48:21.535Z,28.83
2018-01-08T15:50:49.075Z,28.40
2018-01-08T15:53:16.625Z,27.60
2018-01-08T15:55:44.207Z,25.63
2018-01-08T15:58:11.952Z,27.83
2018-01-08T16:00:39.920Z,26.40
2018-01-08T16:03:09.440Z,27.30
2018-01-08T16:05:36.964Z,23.97
2018-01-08T16:08:04.659Z,30.60
2018-01-08T16:10:34.251Z,31.47
2018-01-08T16:13:01.785Z,30.00
2018-01-08T16:15:29.359Z,32.90
2018-01-08T16:17:56.883Z,31.63
2018-01-08T16:20:24.446Z,33.30
2018-01-08T16:22:51.971Z,31.90
2018-01-08T16:25:19.563Z,28.60
2018-01-08T16:27:48.166Z,29.30
2018-01-08T16:30:16.713Z,29.40
2018-01-08T16:32:44.292Z,29.93
2018-01-08T16:35:11.821Z,32.10
2018-01-08T16:37:39.466Z,30.73
2018-01-08T16:40:08.075Z,29.03
2018-01-08T16:42:35.672Z,31.23
2018-01-08T16:45:03.215Z,29.70
2018-01-08T16:47:32.443Z,25.30
2018-01-08T16:49:59.975Z,27.00
2018-01-08T16:52:27.540Z,24.70
2018-01-08T16:54:55.201Z,22.80
2018-01-08T16:57:23.954Z,23.10
2018-01-08T16:59:51.743Z,36.87
2018-01-08T17:02:19.288Z,22.33
2018-01-08T17:04:47.125Z,23.47
2018-01-08T17:07:14.715Z,22.60
2018-01-08T17:09:42.327Z,23.10
2018-01-08T17:12:09.881Z,24.50
2018-01-08T17:14:37.638Z,23.90
2018-01-08T17:17:05.203Z,23.17
2018-01-08T17:19:32.768Z,22.80
2018-01-08T17:22:00.364Z,26.30
2018-01-08T17:24:28.007Z,24.37
2018-01-08T17:26:56.599Z,24.77
2018-01-08T17:29:24.161Z,24.17
2018-01-08T17:31:51.723Z,26.60
2018-01-08T17:34:20.196Z,23.23
2018-01-08T17:36:47.817Z,22.87
2018-01-08T17:39:15.507Z,23.33
2018-01-08T17:41:43.146Z,25.20
2018-01-08T17:44:10.695Z,24.47
2018-01-08T17:46:38.262Z,24.93
2018-01-08T17:49:06.811Z,25.10
2018-01-08T17:51:35.467Z,32.67
2018-01-08T17:54:03.201Z,31.80
2018-01-08T17:56:30.885Z,29.67
2018-01-08T17:58:59.528Z,26.30
2018-01-08T18:01:28.121Z,27.00
2018-01-08T18:03:55.706Z,38.60
2018-01-08T18:06:23.442Z,30.27
2018-01-08T18:08:51.083Z,43.43
2018-01-08T18:11:18.655Z,29.03
2018-01-08T18:13:48.171Z,25.47
2018-01-08T18:16:15.970Z,23.80
2018-01-08T18:18:43.497Z,28.30
2018-01-08T18:21:11.995Z,40.43
2018-01-08T18:23:39.569Z,30.17
2018-01-08T18:26:07.643Z,32.30
2018-01-08T18:28:35.205Z,33.83
2018-01-08T18:31:03.849Z,37.70
2018-01-08T18:33:31.391Z,35.87
2018-01-08T18:35:59.043Z,31.30
2018-01-08T18:38:26.653Z,32.73
2018-01-08T18:40:54.295Z,33.67
2018-01-08T18:43:21.843Z,30.90
2018-01-08T18:45:49.395Z,35.40
2018-01-08T18:48:17.069Z,27.07
2018-01-08T18:50:45.926Z,26.83
2018-01-08T18:53:14.265Z,31.40
2018-01-08T18:55:41.799Z,34.20
2018-01-08T18:58:09.369Z,34.00
2018-01-08T19:00:36.964Z,40.30
2018-01-08T19:03:04.514Z,33.30
2018-01-08T19:05:33.058Z,34.40
2018-01-08T19:08:00.659Z,30.50
2018-01-08T19:10:28.191Z,29.50
2018-01-08T19:12:55.716Z,31.60
2018-01-08T19:15:23.415Z,28.30
2018-01-08T19:17:50.938Z,25.00
2018-01-08T19:20:18.536Z,24.03
2018-01-08T19:22:46.070Z,24.13
2018-01-08T19:25:13.627Z,24.07
2018-01-08T19:27:41.183Z,22.20
2018-01-08T19:30:08.741Z,25.53
2018-01-08T19:32:36.262Z,31.63
2018-01-08T19:35:04.619Z,29.97
2018-01-08T19:37:32.154Z,31.07
2018-01-08T19:39:59.828Z,30.37
2018-01-08T19:42:27.363Z,30.30
2018-01-08T19:44:55.103Z,25.93
2018-01-08T19:47:24.567Z,26.37
2018-01-08T19:49:53.358Z,25.37
2018-01-08T19:52:20.930Z,24.20
2018-01-08T19:54:48.491Z,26.83
2018-01-08T19:57:16.353Z,25.70
2018-01-08T19:59:43.878Z,24.07
2018-01-08T20:02:11.463Z,24.30
2018-01-08T20:04:39.168Z,24.80
2018-01-08T20:07:07.671Z,23.67
2018-01-08T20:09:35.227Z,23.97
2018-01-08T20:12:02.779Z,20.40
2018-01-08T20:14:30.306Z,25.70
2018-01-08T20:16:57.826Z,23.93
2018-01-08T20:19:26.406Z,24.47
2018-01-08T20:21:53.929Z,24.87
2018-01-08T20:24:21.474Z,22.73
2018-01-08T20:26:50.022Z,31.30
2018-01-08T20:29:17.581Z,22.10
2018-01-08T20:31:45.115Z,21.50
2018-01-08T20:34:12.714Z,24.33
2018-01-08T20:36:40.264Z,24.73
2018-01-08T20:39:07.792Z,26.33
2018-01-08T20:41:35.335Z,24.87
2018-01-08T20:44:03.843Z,25.70
2018-01-08T20:46:31.403Z,28.93
2018-01-08T20:48:59.285Z,27.93
2018-01-08T20:51:27.842Z,25.73
2018-01-08T20:53:55.459Z,28.30
2018-01-08T20:56:23.751Z,26.13
2018-01-08T20:58:52.359Z,25.00
2018-01-08T21:01:19.880Z,24.90
2018-01-08T21:03:48.203Z,25.37
2018-01-08T21:06:15.743Z,24.50
2018-01-08T21:08:45.378Z,24.47
2018-01-08T21:11:13.895Z,24.07
2018-01-08T21:13:42.215Z,25.97
2018-01-08T21:16:09.761Z,25.30
2018-01-08T21:18:38.271Z,25.77
2018-01-08T21:21:05.823Z,26.80
2018-01-08T21:23:33.351Z,28.63
2018-01-08T21:26:00.966Z,27.63
2018-01-08T21:28:28.491Z,27.37
2018-01-08T21:30:56.047Z,29.03
2018-01-08T21:33:23.814Z,30.87
2018-01-08T21:35:51.598Z,30.33
2018-01-08T21:38:19.146Z,29.80
2018-01-08T21:40:46.690Z,29.43
2018-01-08T21:43:14.241Z,31.00
2018-01-08T21:45:41.819Z,31.70
2018-01-08T21:48:09.375Z,32.40
2018-01-08T21:50:37.870Z,30.83
2018-01-08T21:53:05.435Z,32.33
2018-01-08T21:55:34.077Z,30.60
2018-01-08T21:58:01.635Z,27.80
2018-01-08T22:00:29.203Z,29.70
2018-01-08T22:02:56.761Z,29.27
2018-01-08T22:05:24.320Z,25.77
2018-01-08T22:07:51.856Z,28.87
2018-01-08T22:10:19.436Z,28.17
2018-01-08T22:12:46.980Z,28.07
2018-01-08T22:15:14.540Z,28.20
2018-01-08T22:17:43.390Z,25.90
2018-01-08T22:20:10.950Z,26.57
2018-01-08T22:22:38.669Z,24.83
2018-01-08T22:25:06.690Z,25.50
2018-01-08T22:27:34.222Z,24.43
2018-01-08T22:30:01.798Z,22.67
2018-01-08T22:32:29.332Z,23.00
2018-01-08T22:34:58.827Z,24.03
2018-01-08T22:37:26.380Z,24.33
2018-01-08T22:39:54.144Z,26.10
2018-01-08T22:42:22.047Z,26.33
2018-01-08T22:44:50.047Z,27.83
2018-01-08T22:47:17.633Z,40.00
2018-01-08T22:49:45.159Z,47.20
2018-01-08T22:52:14.747Z,28.33
2018-01-08T22:54:42.280Z,29.97
2018-01-08T22:57:09.890Z,88.77
2018-01-08T22:59:37.421Z,27.77
2018-01-08T23:02:05.012Z,26.40
2018-01-08T23:04:32.572Z,34.63
2018-01-08T23:07:00.868Z,31.60
2018-01-08T23:09:28.427Z,27.80
2018-01-08T23:11:55.950Z,35.90
2018-01-08T23:14:23.542Z,29.70
2018-01-08T23:16:51.067Z,48.43
2018-01-08T23:19:18.876Z,34.97
2018-01-08T23:21:46.407Z,68.97
2018-01-08T23:24:14.698Z,29.50
2018-01-08T23:26:42.258Z,92.13
2018-01-08T23:29:09.808Z,29.30
2018-01-08T23:31:37.365Z,30.47
2018-01-08T23:34:04.890Z,49.93
2018-01-08T23:36:33.434Z,45.90
2018-01-08T23:39:00.962Z,38.53
2018-01-08T23:41:30.459Z,27.00
2018-01-08T23:43:58.747Z,28.83
2018-01-08T23:46:26.305Z,29.80
2018-01-08T23:48:54.597Z,29.30
2018-01-08T23:51:22.930Z,29.40
2018-01-08T23:53:50.470Z,29.30
2018-01-08T23:56:17.999Z,30.33
2018-01-08T23:58:47.519Z,33.27
